createdAt,value
2023-05-15T09:49:39.922Z,48.05
2023-05-15T09:52:10.814Z,42.86
2023-05-15T09:54:37.946Z,41.41
2023-05-15T09:57:12.483Z,40.17
2023-05-15T09:59:48.868Z,39.19
2023-05-15T10:02:31.196Z,38.75
2023-05-15T10:04:59.108Z,37.48
2023-05-15T10:07:32.877Z,37.17
2023-05-15T10:10:01.211Z,36.84
2023-05-15T10:12:31.143Z,38.46
2023-05-15T10:14:59.497Z,39.77
2023-05-15T10:17:28.184Z,40.58
2023-05-15T10:19:59.278Z,42.36
2023-05-15T10:22:30.593Z,42.23
2023-05-15T10:25:12.649Z,42.64
2023-05-15T10:27:40.765Z,43.27
2023-05-15T10:30:09.669Z,43.93
2023-05-15T10:32:36.656Z,43.76
2023-05-15T10:35:03.828Z,44.11
2023-05-15T10:37:30.827Z,44.00
2023-05-15T10:39:57.950Z,42.75
2023-05-15T10:42:26.345Z,42.25
2023-05-15T10:45:00.038Z,43.23
2023-05-15T10:47:27.441Z,44.76
2023-05-15T10:49:54.156Z,43.88
2023-05-15T10:52:20.974Z,43.94
2023-05-15T10:54:47.562Z,43.61
2023-05-15T10:57:17.246Z,44.17
2023-05-15T10:59:44.271Z,44.61
2023-05-15T11:02:24.232Z,44.27
2023-05-15T11:04:57.761Z,43.85
2023-05-15T11:07:24.551Z,43.50
2023-05-15T11:09:52.904Z,42.81
2023-05-15T11:12:19.792Z,42.95
2023-05-15T11:14:52.338Z,43.18
2023-05-15T11:17:18.927Z,43.38
2023-05-15T11:19:51.741Z,43.01
2023-05-15T11:22:30.402Z,42.65
2023-05-15T11:25:09.031Z,42.95
2023-05-15T11:27:40.453Z,43.67
2023-05-15T11:30:25.065Z,44.17
2023-05-15T11:32:58.835Z,44.20
2023-05-15T11:35:46.990Z,44.63
2023-05-15T11:38:20.032Z,43.93
2023-05-15T11:40:52.436Z,42.96
2023-05-15T11:43:29.823Z,43.03
2023-05-15T11:46:07.787Z,43.74
2023-05-15T11:48:53.237Z,47.90
2023-05-15T11:51:27.453Z,50.29
2023-05-15T11:53:55.731Z,51.38
2023-05-15T11:56:24.844Z,51.63
2023-05-15T11:58:55.497Z,51.86
2023-05-15T12:01:22.133Z,51.59
2023-05-15T12:03:49.695Z,52.90
2023-05-15T12:06:16.908Z,53.71
2023-05-15T12:08:43.930Z,54.04
2023-05-15T12:11:10.914Z,57.29
2023-05-15T12:13:37.546Z,57.79
2023-05-15T12:16:04.863Z,57.01
2023-05-15T12:18:32.626Z,56.84
2023-05-15T12:20:59.667Z,56.47
2023-05-15T12:23:28.230Z,55.90
2023-05-15T12:25:58.990Z,55.68
2023-05-15T12:28:26.647Z,56.12
2023-05-15T12:30:54.144Z,56.63
2023-05-15T12:33:20.885Z,55.71
2023-05-15T12:35:56.238Z,55.67
2023-05-15T12:38:24.924Z,54.90
2023-05-15T12:40:56.880Z,55.15
2023-05-15T12:43:25.439Z,55.85
2023-05-15T12:45:53.399Z,56.60
2023-05-15T12:48:20.243Z,56.26
2023-05-15T12:50:46.955Z,56.47
2023-05-15T12:53:15.728Z,56.75
2023-05-15T12:55:44.456Z,56.92
2023-05-15T12:58:12.708Z,56.99
2023-05-15T13:00:43.159Z,57.25
2023-05-15T13:03:11.660Z,56.77
2023-05-15T13:05:39.589Z,57.04
2023-05-15T13:08:09.254Z,56.67
2023-05-15T13:10:37.843Z,56.63
2023-05-15T13:13:04.561Z,56.30
2023-05-15T13:15:37.591Z,56.57
2023-05-15T13:18:09.652Z,56.61
2023-05-15T13:20:39.552Z,56.78
2023-05-15T13:26:06.504Z,56.76
2023-05-15T13:28:34.205Z,56.67
2023-05-15T13:31:01.144Z,56.73
2023-05-15T13:33:28.745Z,56.34
2023-05-15T13:35:57.225Z,55.91
2023-05-15T13:38:27.870Z,54.93
2023-05-15T13:40:54.405Z,55.15
2023-05-15T13:43:21.023Z,55.33
2023-05-15T13:45:47.562Z,55.33
2023-05-15T13:48:14.160Z,55.15
2023-05-15T13:50:40.889Z,54.54
2023-05-15T13:53:07.504Z,54.85
2023-05-15T13:55:34.078Z,55.47
2023-05-15T13:58:01.455Z,55.16
2023-05-15T14:00:28.920Z,55.25
2023-05-15T14:02:55.494Z,55.34
2023-05-15T14:05:22.074Z,55.34
2023-05-15T14:07:48.596Z,55.82
2023-05-15T14:10:15.114Z,55.47
2023-05-15T14:12:43.343Z,55.22
2023-05-15T14:15:11.782Z,54.97
2023-05-15T14:17:38.394Z,55.03
2023-05-15T14:20:05.396Z,55.01
2023-05-15T14:22:32.148Z,54.85
2023-05-15T14:24:58.718Z,54.41
2023-05-15T14:27:25.265Z,54.65
2023-05-15T14:29:51.898Z,54.92
2023-05-15T14:32:18.648Z,54.65
2023-05-15T14:34:45.245Z,54.71
2023-05-15T14:37:11.999Z,55.28
2023-05-15T14:39:38.763Z,56.43
2023-05-15T14:42:06.279Z,56.25
2023-05-15T14:44:33.792Z,56.13
2023-05-15T14:47:13.469Z,56.65
2023-05-15T14:49:40.607Z,55.63
2023-05-15T14:52:09.567Z,55.17
2023-05-15T14:54:36.486Z,55.06
2023-05-15T14:57:03.756Z,55.26
2023-05-15T14:59:30.589Z,55.26
2023-05-15T15:01:57.570Z,55.24
2023-05-15T15:04:24.254Z,55.62
2023-05-15T15:06:50.904Z,55.96
2023-05-15T15:09:19.517Z,56.68
2023-05-15T15:11:47.451Z,56.39
2023-05-15T15:14:14.104Z,56.64
2023-05-15T15:16:40.842Z,55.67
2023-05-15T15:19:07.408Z,55.98
2023-05-15T15:21:34.559Z,55.95
2023-05-15T15:24:01.152Z,55.84
2023-05-15T15:26:27.687Z,56.00
2023-05-15T15:28:55.201Z,55.86
2023-05-15T15:31:21.750Z,55.73
2023-05-15T15:33:48.488Z,55.90
2023-05-15T15:36:14.999Z,55.98
2023-05-15T15:38:43.625Z,55.51
2023-05-15T15:41:10.261Z,55.86
2023-05-15T15:43:36.806Z,56.14
2023-05-15T15:46:03.377Z,56.90
2023-05-15T15:48:29.984Z,56.83
2023-05-15T15:50:57.036Z,56.57
2023-05-15T15:53:23.686Z,56.86
2023-05-15T15:55:50.437Z,56.64
2023-05-15T15:58:17.016Z,56.73
2023-05-15T16:00:43.670Z,56.57
2023-05-15T16:03:10.847Z,56.62
2023-05-15T16:05:37.426Z,56.47
2023-05-15T16:08:04.095Z,56.69
2023-05-15T16:10:30.806Z,56.81
2023-05-15T16:12:57.671Z,57.35
2023-05-15T16:15:24.388Z,56.63
2023-05-15T16:17:54.657Z,55.89
2023-05-15T16:20:21.836Z,55.61
2023-05-15T16:22:48.357Z,55.72
2023-05-15T16:25:14.887Z,55.15
2023-05-15T16:27:41.413Z,54.79
2023-05-15T16:30:09.253Z,54.72
2023-05-15T16:32:36.118Z,55.20
2023-05-15T16:35:03.013Z,55.14
2023-05-15T16:37:29.598Z,55.73
2023-05-15T16:39:56.237Z,55.13
2023-05-15T16:42:23.126Z,55.54
2023-05-15T16:44:49.638Z,55.07
2023-05-15T16:47:16.147Z,55.89
2023-05-15T16:49:44.380Z,55.83
2023-05-15T16:52:12.040Z,55.65
2023-05-15T16:54:41.449Z,54.83
2023-05-15T16:57:08.030Z,55.31
2023-05-15T16:59:34.705Z,55.63
2023-05-15T17:02:01.360Z,54.90
2023-05-15T17:04:29.077Z,55.02
2023-05-15T17:06:57.023Z,53.89
2023-05-15T17:09:23.554Z,54.25
2023-05-15T17:11:50.075Z,54.53
2023-05-15T17:14:16.732Z,54.09
2023-05-15T17:16:43.499Z,53.73
2023-05-15T17:19:10.188Z,53.69
2023-05-15T17:21:37.393Z,53.09
2023-05-15T17:24:04.040Z,52.76
2023-05-15T17:26:30.569Z,53.25
2023-05-15T17:28:57.101Z,53.29
2023-05-15T17:31:23.667Z,53.33
2023-05-15T17:33:50.210Z,53.37
2023-05-15T17:36:16.745Z,53.27
2023-05-15T17:38:43.300Z,53.26
2023-05-15T17:41:09.790Z,53.44
2023-05-15T17:43:36.370Z,53.41
2023-05-15T17:46:03.544Z,53.78
2023-05-15T17:48:30.093Z,52.65
2023-05-15T17:50:56.669Z,52.86
2023-05-15T17:53:24.337Z,52.87
2023-05-15T17:55:50.900Z,52.53
2023-05-15T17:58:17.467Z,52.03
2023-05-15T18:00:44.022Z,52.46
2023-05-15T18:03:10.621Z,52.96
2023-05-15T18:05:37.305Z,53.06
2023-05-15T18:08:04.242Z,53.07
2023-05-15T18:10:30.859Z,53.63
2023-05-15T18:12:58.474Z,53.50
2023-05-15T18:15:25.509Z,53.31
2023-05-15T18:17:52.179Z,53.33
2023-05-15T18:20:18.814Z,53.39
2023-05-15T18:22:45.953Z,53.56
2023-05-15T18:25:12.572Z,53.35
2023-05-15T18:27:39.205Z,53.52
2023-05-15T18:30:06.580Z,53.39
2023-05-15T18:32:33.435Z,53.71
2023-05-15T18:35:00.026Z,53.58
2023-05-15T18:37:27.034Z,53.32
2023-05-15T18:39:56.639Z,53.34
2023-05-15T18:42:25.208Z,53.38
2023-05-15T18:44:52.072Z,52.91
2023-05-15T18:47:18.647Z,52.81
2023-05-15T18:49:45.375Z,53.31
2023-05-15T18:52:12.367Z,53.23
2023-05-15T18:54:41.201Z,53.50
2023-05-15T18:57:08.248Z,53.45
2023-05-15T18:59:34.959Z,53.36
2023-05-15T19:02:01.622Z,52.86
2023-05-15T19:04:28.175Z,52.94
2023-05-15T19:06:54.746Z,52.82
2023-05-15T19:09:21.304Z,52.72
2023-05-15T19:11:49.561Z,53.05
2023-05-15T19:14:17.784Z,53.06
2023-05-15T19:16:47.581Z,53.20
2023-05-15T19:19:14.282Z,53.17
2023-05-15T19:21:40.883Z,52.94
2023-05-15T19:24:07.728Z,52.89
2023-05-15T19:26:34.392Z,52.76
2023-05-15T19:29:00.932Z,52.87
2023-05-15T19:31:31.972Z,52.95
2023-05-15T19:33:59.711Z,52.77
2023-05-15T19:36:26.455Z,52.68
2023-05-15T19:38:53.062Z,52.71
2023-05-15T19:41:19.690Z,52.56
2023-05-15T19:43:47.004Z,52.23
2023-05-15T19:46:13.881Z,52.25
2023-05-15T19:48:40.706Z,52.36
2023-05-15T19:51:07.342Z,52.73
2023-05-15T19:53:34.193Z,52.20
2023-05-15T19:56:00.814Z,51.92
2023-05-15T19:58:27.410Z,51.67
2023-05-15T20:00:54.467Z,51.98
2023-05-15T20:03:22.017Z,52.17
2023-05-15T20:05:48.753Z,51.74
2023-05-15T20:08:17.035Z,51.86
2023-05-15T20:10:44.448Z,51.92
2023-05-15T20:13:11.570Z,51.59
2023-05-15T20:15:40.028Z,51.88
2023-05-15T20:18:06.998Z,51.95
2023-05-15T20:20:33.626Z,52.03
2023-05-15T20:23:00.173Z,51.89
2023-05-15T20:25:27.002Z,52.21
2023-05-15T20:27:56.890Z,52.41
2023-05-15T20:30:24.095Z,52.80
2023-05-15T20:32:51.426Z,51.79
2023-05-15T20:35:18.024Z,52.26
2023-05-15T20:37:45.310Z,52.38
2023-05-15T20:40:12.882Z,52.15
2023-05-15T20:42:40.022Z,52.54
2023-05-15T20:45:08.573Z,52.31
2023-05-15T20:47:35.835Z,52.53
2023-05-15T20:50:02.502Z,53.04
2023-05-15T20:52:29.199Z,52.51
2023-05-15T20:54:55.774Z,53.07
2023-05-15T20:57:22.346Z,53.17
2023-05-15T20:59:48.892Z,52.99
2023-05-15T21:02:15.957Z,52.79
2023-05-15T21:04:42.776Z,53.06
2023-05-15T21:07:09.803Z,52.20
2023-05-15T21:09:36.330Z,52.16
2023-05-15T21:12:04.023Z,52.14
2023-05-15T21:14:30.781Z,52.23
2023-05-15T21:16:57.679Z,52.48
2023-05-15T21:19:24.389Z,52.62
2023-05-15T21:21:51.033Z,52.73
2023-05-15T21:24:17.778Z,52.56
2023-05-15T21:26:44.427Z,52.96
2023-05-15T21:29:11.143Z,53.22
2023-05-15T21:31:37.796Z,53.44
2023-05-15T21:34:04.347Z,53.06
2023-05-15T21:36:31.296Z,53.16
2023-05-15T21:38:57.845Z,53.07
2023-05-15T21:41:25.888Z,53.11
2023-05-15T21:43:52.457Z,52.83
2023-05-15T21:46:19.204Z,53.41
2023-05-15T21:48:46.391Z,53.31
2023-05-15T21:51:12.924Z,53.63
2023-05-15T21:53:39.519Z,53.23
2023-05-15T21:56:06.505Z,53.25
2023-05-15T21:58:33.042Z,52.92
2023-05-15T22:00:59.658Z,53.42
2023-05-15T22:03:26.273Z,53.02
2023-05-15T22:05:53.138Z,53.22
2023-05-15T22:08:19.959Z,53.31
2023-05-15T22:10:46.537Z,53.21
2023-05-15T22:13:13.114Z,53.49
2023-05-15T22:15:39.653Z,53.41
2023-05-15T22:18:06.436Z,53.42
2023-05-15T22:20:33.105Z,53.40
2023-05-15T22:22:59.795Z,53.47
2023-05-15T22:25:26.408Z,53.27
2023-05-15T22:27:52.919Z,53.42
2023-05-15T22:30:19.689Z,53.12
2023-05-15T22:32:46.372Z,53.14
2023-05-15T22:35:13.264Z,53.50
2023-05-15T22:37:41.946Z,53.23
2023-05-15T22:40:10.463Z,52.85
2023-05-15T22:42:37.309Z,53.20
2023-05-15T22:45:05.877Z,53.09
2023-05-15T22:47:32.700Z,52.87
2023-05-15T22:49:59.386Z,53.23
2023-05-15T22:52:26.276Z,53.37
2023-05-15T22:55:11.322Z,53.09
2023-05-15T22:57:43.560Z,52.74
2023-05-15T23:00:10.681Z,52.88
2023-05-15T23:02:38.275Z,52.87
2023-05-15T23:05:05.178Z,53.12
2023-05-15T23:08:25.186Z,52.84
2023-05-15T23:10:56.097Z,52.74
2023-05-15T23:13:22.933Z,52.96
2023-05-15T23:15:49.478Z,53.15
2023-05-15T23:18:16.949Z,52.80
2023-05-15T23:20:43.557Z,52.96
2023-05-15T23:23:10.117Z,52.89
2023-05-15T23:25:36.858Z,53.36
2023-05-15T23:28:03.836Z,53.58
2023-05-15T23:30:30.689Z,53.32
2023-05-15T23:32:57.253Z,53.49
2023-05-15T23:35:23.888Z,53.48
2023-05-15T23:37:50.469Z,53.19
2023-05-15T23:40:17.135Z,53.02
2023-05-15T23:42:43.664Z,53.01
2023-05-15T23:45:10.942Z,53.00
2023-05-15T23:47:37.597Z,52.89
2023-05-15T23:50:04.713Z,52.95
2023-05-15T23:52:31.534Z,52.78
2023-05-15T23:54:58.084Z,52.30
2023-05-15T23:57:24.623Z,52.35
2023-05-15T23:59:51.295Z,52.52
